sensor_id;sensor_type;location;lat;lon;timestamp;temperature;humidity
23813;DHT22;12087;45.190;5.688;2023-04-25T00:00:10;14.40;99.90
23813;DHT22;12087;45.190;5.688;2023-04-25T00:05:34;14.40;99.90
23813;DHT22;12087;45.190;5.688;2023-04-25T00:10:57;14.40;99.90
23813;DHT22;12087;45.190;5.688;2023-04-25T00:16:20;14.40;99.90
23813;DHT22;12087;45.190;5.688;2023-04-25T00:21:43;14.30;99.90
23813;DHT22;12087;45.190;5.688;2023-04-25T00:27:06;14.30;99.90
23813;DHT22;12087;45.190;5.688;2023-04-25T00:32:29;14.30;99.90
23813;DHT22;12087;45.190;5.688;2023-04-25T00:37:53;14.30;99.90
23813;DHT22;12087;45.190;5.688;2023-04-25T00:43:15;14.20;99.90
23813;DHT22;12087;45.190;5.688;2023-04-25T00:48:38;14.30;99.90
23813;DHT22;12087;45.190;5.688;2023-04-25T00:54:01;14.30;99.90
23813;DHT22;12087;45.190;5.688;2023-04-25T00:59:24;14.20;99.90
23813;DHT22;12087;45.190;5.688;2023-04-25T01:04:48;14.20;99.90
23813;DHT22;12087;45.190;5.688;2023-04-25T01:10:12;14.20;99.90
23813;DHT22;12087;45.190;5.688;2023-04-25T01:15:36;14.20;99.90
23813;DHT22;12087;45.190;5.688;2023-04-25T01:21:07;14.20;99.90
23813;DHT22;12087;45.190;5.688;2023-04-25T01:26:30;14.10;99.90
23813;DHT22;12087;45.190;5.688;2023-04-25T01:31:54;14.10;99.90
23813;DHT22;12087;45.190;5.688;2023-04-25T01:37:21;14.10;99.90
23813;DHT22;12087;45.190;5.688;2023-04-25T01:42:44;14.00;99.90
23813;DHT22;12087;45.190;5.688;2023-04-25T01:48:07;14.00;99.90
23813;DHT22;12087;45.190;5.688;2023-04-25T01:53:31;13.90;99.90
23813;DHT22;12087;45.190;5.688;2023-04-25T01:58:54;13.90;99.90
23813;DHT22;12087;45.190;5.688;2023-04-25T02:04:16;13.90;99.90
23813;DHT22;12087;45.190;5.688;2023-04-25T02:09:39;13.70;99.90
23813;DHT22;12087;45.190;5.688;2023-04-25T02:15:02;13.70;99.90
23813;DHT22;12087;45.190;5.688;2023-04-25T02:20:24;13.60;99.90
23813;DHT22;12087;45.190;5.688;2023-04-25T02:25:48;13.60;99.90
23813;DHT22;12087;45.190;5.688;2023-04-25T02:31:10;13.60;99.90
23813;DHT22;12087;45.190;5.688;2023-04-25T02:36:36;13.50;99.90
23813;DHT22;12087;45.190;5.688;2023-04-25T02:42:00;13.40;99.90
23813;DHT22;12087;45.190;5.688;2023-04-25T02:47:23;13.40;99.90
23813;DHT22;12087;45.190;5.688;2023-04-25T02:52:46;13.30;99.90
23813;DHT22;12087;45.190;5.688;2023-04-25T02:58:10;13.30;99.90
23813;DHT22;12087;45.190;5.688;2023-04-25T03:03:32;13.30;99.90
23813;DHT22;12087;45.190;5.688;2023-04-25T03:08:55;13.30;99.90
23813;DHT22;12087;45.190;5.688;2023-04-25T03:14:18;13.20;99.90
23813;DHT22;12087;45.190;5.688;2023-04-25T03:19:40;13.20;99.90
23813;DHT22;12087;45.190;5.688;2023-04-25T03:25:03;13.10;99.90
23813;DHT22;12087;45.190;5.688;2023-04-25T03:30:27;13.10;99.90
23813;DHT22;12087;45.190;5.688;2023-04-25T03:35:49;13.00;99.90
23813;DHT22;12087;45.190;5.688;2023-04-25T03:41:12;13.00;99.90
23813;DHT22;12087;45.190;5.688;2023-04-25T03:46:37;13.00;99.90
23813;DHT22;12087;45.190;5.688;2023-04-25T03:51:59;13.00;99.90
23813;DHT22;12087;45.190;5.688;2023-04-25T03:57:22;12.90;99.90
23813;DHT22;12087;45.190;5.688;2023-04-25T04:02:46;12.90;99.90
23813;DHT22;12087;45.190;5.688;2023-04-25T04:08:08;12.90;99.90
23813;DHT22;12087;45.190;5.688;2023-04-25T04:13:30;12.90;99.90
23813;DHT22;12087;45.190;5.688;2023-04-25T04:18:54;12.80;99.90
23813;DHT22;12087;45.190;5.688;2023-04-25T04:24:16;12.80;99.90
23813;DHT22;12087;45.190;5.688;2023-04-25T04:29:39;12.80;99.90
23813;DHT22;12087;45.190;5.688;2023-04-25T04:35:02;12.90;99.90
23813;DHT22;12087;45.190;5.688;2023-04-25T04:40:25;12.90;99.90
23813;DHT22;12087;45.190;5.688;2023-04-25T04:45:47;12.90;99.90
23813;DHT22;12087;45.190;5.688;2023-04-25T04:51:11;12.90;99.90
23813;DHT22;12087;45.190;5.688;2023-04-25T04:56:33;12.90;99.90
23813;DHT22;12087;45.190;5.688;2023-04-25T05:01:56;13.00;99.90
23813;DHT22;12087;45.190;5.688;2023-04-25T05:07:19;13.00;99.90
23813;DHT22;12087;45.190;5.688;2023-04-25T05:12:42;13.00;99.90
23813;DHT22;12087;45.190;5.688;2023-04-25T05:18:04;12.90;99.90
23813;DHT22;12087;45.190;5.688;2023-04-25T05:23:27;13.00;99.90
23813;DHT22;12087;45.190;5.688;2023-04-25T05:28:50;13.10;99.90
23813;DHT22;12087;45.190;5.688;2023-04-25T05:34:13;13.10;99.90
23813;DHT22;12087;45.190;5.688;2023-04-25T05:39:37;13.10;99.90
23813;DHT22;12087;45.190;5.688;2023-04-25T05:44:59;13.00;99.90
23813;DHT22;12087;45.190;5.688;2023-04-25T05:50:21;13.00;99.90
23813;DHT22;12087;45.190;5.688;2023-04-25T05:55:45;13.00;99.90
23813;DHT22;12087;45.190;5.688;2023-04-25T06:01:08;13.00;99.90
23813;DHT22;12087;45.190;5.688;2023-04-25T06:06:30;13.00;99.90
23813;DHT22;12087;45.190;5.688;2023-04-25T06:11:54;13.00;99.90
23813;DHT22;12087;45.190;5.688;2023-04-25T06:17:16;13.00;99.90
23813;DHT22;12087;45.190;5.688;2023-04-25T06:22:38;12.90;99.90
23813;DHT22;12087;45.190;5.688;2023-04-25T06:28:02;12.80;99.90
23813;DHT22;12087;45.190;5.688;2023-04-25T06:33:24;12.60;99.90
23813;DHT22;12087;45.190;5.688;2023-04-25T06:38:47;12.50;99.90
23813;DHT22;12087;45.190;5.688;2023-04-25T06:44:10;12.50;99.90
23813;DHT22;12087;45.190;5.688;2023-04-25T06:49:33;12.60;99.90
23813;DHT22;12087;45.190;5.688;2023-04-25T06:54:55;12.80;99.90
23813;DHT22;12087;45.190;5.688;2023-04-25T07:00:20;12.80;99.90
23813;DHT22;12087;45.190;5.688;2023-04-25T07:05:42;12.80;99.90
23813;DHT22;12087;45.190;5.688;2023-04-25T07:11:06;13.00;99.90
23813;DHT22;12087;45.190;5.688;2023-04-25T07:16:30;13.10;99.90
23813;DHT22;12087;45.190;5.688;2023-04-25T07:21:52;13.10;99.90
23813;DHT22;12087;45.190;5.688;2023-04-25T07:27:14;13.00;99.90
23813;DHT22;12087;45.190;5.688;2023-04-25T07:32:38;13.00;99.90
23813;DHT22;12087;45.190;5.688;2023-04-25T07:38:01;13.10;99.90
23813;DHT22;12087;45.190;5.688;2023-04-25T07:43:23;13.10;99.90
23813;DHT22;12087;45.190;5.688;2023-04-25T07:48:48;13.30;99.90
23813;DHT22;12087;45.190;5.688;2023-04-25T07:54:12;13.30;99.90
23813;DHT22;12087;45.190;5.688;2023-04-25T07:59:34;13.40;99.90
23813;DHT22;12087;45.190;5.688;2023-04-25T08:04:58;13.40;99.90
23813;DHT22;12087;45.190;5.688;2023-04-25T08:10:20;13.30;99.90
23813;DHT22;12087;45.190;5.688;2023-04-25T08:15:43;13.40;99.90
23813;DHT22;12087;45.190;5.688;2023-04-25T08:21:07;13.40;99.90
23813;DHT22;12087;45.190;5.688;2023-04-25T08:26:32;13.50;99.90
23813;DHT22;12087;45.190;5.688;2023-04-25T08:31:55;13.80;99.90
23813;DHT22;12087;45.190;5.688;2023-04-25T08:37:19;14.00;99.90
23813;DHT22;12087;45.190;5.688;2023-04-25T08:42:41;14.20;99.90
23813;DHT22;12087;45.190;5.688;2023-04-25T08:48:04;14.50;99.90
23813;DHT22;12087;45.190;5.688;2023-04-25T08:53:30;14.70;99.90
23813;DHT22;12087;45.190;5.688;2023-04-25T08:58:53;15.00;99.90
23813;DHT22;12087;45.190;5.688;2023-04-25T09:04:16;14.90;99.90
23813;DHT22;12087;45.190;5.688;2023-04-25T09:09:41;14.70;99.90
23813;DHT22;12087;45.190;5.688;2023-04-25T09:15:05;14.80;99.90
23813;DHT22;12087;45.190;5.688;2023-04-25T09:20:28;15.00;99.90
23813;DHT22;12087;45.190;5.688;2023-04-25T09:25:53;15.20;99.90
23813;DHT22;12087;45.190;5.688;2023-04-25T09:31:21;15.40;99.90
23813;DHT22;12087;45.190;5.688;2023-04-25T09:36:44;15.40;99.90
23813;DHT22;12087;45.190;5.688;2023-04-25T09:42:09;15.50;99.90
23813;DHT22;12087;45.190;5.688;2023-04-25T09:47:31;15.80;99.90
23813;DHT22;12087;45.190;5.688;2023-04-25T09:53:03;16.10;99.90
23813;DHT22;12087;45.190;5.688;2023-04-25T09:58:29;16.20;99.90
23813;DHT22;12087;45.190;5.688;2023-04-25T10:03:53;16.30;99.90
23813;DHT22;12087;45.190;5.688;2023-04-25T10:09:20;16.10;99.90
23813;DHT22;12087;45.190;5.688;2023-04-25T10:14:46;16.10;99.60
23813;DHT22;12087;45.190;5.688;2023-04-25T10:20:09;16.10;99.10
23813;DHT22;12087;45.190;5.688;2023-04-25T10:25:32;16.20;99.70
23813;DHT22;12087;45.190;5.688;2023-04-25T10:30:59;16.10;98.10
23813;DHT22;12087;45.190;5.688;2023-04-25T10:36:23;15.90;99.50
23813;DHT22;12087;45.190;5.688;2023-04-25T10:41:52;16.00;99.90
23813;DHT22;12087;45.190;5.688;2023-04-25T10:47:34;16.30;98.70
23813;DHT22;12087;45.190;5.688;2023-04-25T10:53:14;16.60;99.80
23813;DHT22;12087;45.190;5.688;2023-04-25T10:58:38;17.10;96.40
23813;DHT22;12087;45.190;5.688;2023-04-25T11:04:04;17.40;92.50
23813;DHT22;12087;45.190;5.688;2023-04-25T11:09:27;17.50;90.20
23813;DHT22;12087;45.190;5.688;2023-04-25T11:14:49;17.90;88.50
23813;DHT22;12087;45.190;5.688;2023-04-25T11:20:14;18.00;89.60
23813;DHT22;12087;45.190;5.688;2023-04-25T11:25:36;18.10;85.80
23813;DHT22;12087;45.190;5.688;2023-04-25T11:30:58;18.50;83.80
23813;DHT22;12087;45.190;5.688;2023-04-25T11:36:22;18.80;79.40
23813;DHT22;12087;45.190;5.688;2023-04-25T11:41:46;19.00;74.50
23813;DHT22;12087;45.190;5.688;2023-04-25T11:47:09;19.20;76.50
23813;DHT22;12087;45.190;5.688;2023-04-25T11:52:39;19.40;77.00
23813;DHT22;12087;45.190;5.688;2023-04-25T11:58:02;19.70;79.60
23813;DHT22;12087;45.190;5.688;2023-04-25T12:03:25;20.00;75.60
23813;DHT22;12087;45.190;5.688;2023-04-25T12:09:03;20.00;76.30
23813;DHT22;12087;45.190;5.688;2023-04-25T12:14:27;20.10;75.10
23813;DHT22;12087;45.190;5.688;2023-04-25T12:19:49;20.40;70.80
23813;DHT22;12087;45.190;5.688;2023-04-25T12:25:17;20.60;68.00
23813;DHT22;12087;45.190;5.688;2023-04-25T12:30:56;20.70;68.10
23813;DHT22;12087;45.190;5.688;2023-04-25T12:36:19;21.00;64.40
23813;DHT22;12087;45.190;5.688;2023-04-25T12:41:43;21.10;62.80
23813;DHT22;12087;45.190;5.688;2023-04-25T12:47:06;21.20;61.80
23813;DHT22;12087;45.190;5.688;2023-04-25T12:52:28;21.30;58.80
23813;DHT22;12087;45.190;5.688;2023-04-25T12:57:52;21.30;58.50
23813;DHT22;12087;45.190;5.688;2023-04-25T13:03:14;21.30;61.90
23813;DHT22;12087;45.190;5.688;2023-04-25T13:08:37;21.00;63.10
23813;DHT22;12087;45.190;5.688;2023-04-25T13:14:01;21.40;61.30
23813;DHT22;12087;45.190;5.688;2023-04-25T13:19:23;21.20;61.10
23813;DHT22;12087;45.190;5.688;2023-04-25T13:24:46;21.30;60.00
23813;DHT22;12087;45.190;5.688;2023-04-25T13:30:10;21.20;61.30
23813;DHT22;12087;45.190;5.688;2023-04-25T13:35:33;21.10;60.70
23813;DHT22;12087;45.190;5.688;2023-04-25T13:40:56;21.20;60.30
23813;DHT22;12087;45.190;5.688;2023-04-25T13:46:19;21.30;59.20
23813;DHT22;12087;45.190;5.688;2023-04-25T13:51:42;21.40;60.60
23813;DHT22;12087;45.190;5.688;2023-04-25T13:57:04;21.50;59.30
23813;DHT22;12087;45.190;5.688;2023-04-25T14:02:27;21.70;59.30
23813;DHT22;12087;45.190;5.688;2023-04-25T14:07:49;21.60;58.20
23813;DHT22;12087;45.190;5.688;2023-04-25T14:13:12;21.70;59.20
23813;DHT22;12087;45.190;5.688;2023-04-25T14:18:35;21.70;57.70
23813;DHT22;12087;45.190;5.688;2023-04-25T14:23:58;21.60;57.30
23813;DHT22;12087;45.190;5.688;2023-04-25T14:29:20;21.30;58.30
23813;DHT22;12087;45.190;5.688;2023-04-25T14:34:43;20.90;60.10
23813;DHT22;12087;45.190;5.688;2023-04-25T14:40:07;20.80;59.40
23813;DHT22;12087;45.190;5.688;2023-04-25T14:45:31;20.80;59.60
23813;DHT22;12087;45.190;5.688;2023-04-25T14:50:54;20.80;58.90
23813;DHT22;12087;45.190;5.688;2023-04-25T14:56:17;20.80;58.70
23813;DHT22;12087;45.190;5.688;2023-04-25T15:01:39;20.50;58.10
23813;DHT22;12087;45.190;5.688;2023-04-25T15:07:03;20.30;60.00
23813;DHT22;12087;45.190;5.688;2023-04-25T15:12:25;20.20;60.30
23813;DHT22;12087;45.190;5.688;2023-04-25T15:17:49;20.20;60.50
23813;DHT22;12087;45.190;5.688;2023-04-25T15:23:13;19.90;59.20
23813;DHT22;12087;45.190;5.688;2023-04-25T15:28:35;19.60;61.90
23813;DHT22;12087;45.190;5.688;2023-04-25T15:33:57;19.60;59.40
23813;DHT22;12087;45.190;5.688;2023-04-25T15:39:21;19.50;60.10
23813;DHT22;12087;45.190;5.688;2023-04-25T15:44:43;19.50;60.90
23813;DHT22;12087;45.190;5.688;2023-04-25T15:50:07;19.20;58.60
23813;DHT22;12087;45.190;5.688;2023-04-25T15:55:31;19.10;61.20
23813;DHT22;12087;45.190;5.688;2023-04-25T16:00:54;19.10;62.00
23813;DHT22;12087;45.190;5.688;2023-04-25T16:06:17;19.00;64.00
23813;DHT22;12087;45.190;5.688;2023-04-25T16:11:45;19.00;62.00
23813;DHT22;12087;45.190;5.688;2023-04-25T16:17:07;18.70;61.80
23813;DHT22;12087;45.190;5.688;2023-04-25T16:22:29;18.60;62.90
23813;DHT22;12087;45.190;5.688;2023-04-25T16:27:53;18.60;62.50
23813;DHT22;12087;45.190;5.688;2023-04-25T16:33:15;18.40;61.90
23813;DHT22;12087;45.190;5.688;2023-04-25T16:38:37;18.20;63.40
23813;DHT22;12087;45.190;5.688;2023-04-25T16:44:01;18.00;63.60
23813;DHT22;12087;45.190;5.688;2023-04-25T16:49:26;17.90;64.00
23813;DHT22;12087;45.190;5.688;2023-04-25T16:54:48;17.70;64.60
23813;DHT22;12087;45.190;5.688;2023-04-25T17:00:13;17.60;65.00
23813;DHT22;12087;45.190;5.688;2023-04-25T17:05:36;17.50;64.80
23813;DHT22;12087;45.190;5.688;2023-04-25T17:10:58;17.30;66.50
23813;DHT22;12087;45.190;5.688;2023-04-25T17:16:22;17.20;68.00
23813;DHT22;12087;45.190;5.688;2023-04-25T17:21:44;17.10;67.40
23813;DHT22;12087;45.190;5.688;2023-04-25T17:27:10;17.00;68.00
23813;DHT22;12087;45.190;5.688;2023-04-25T17:32:36;16.90;68.50
23813;DHT22;12087;45.190;5.688;2023-04-25T17:37:59;16.80;67.90
23813;DHT22;12087;45.190;5.688;2023-04-25T17:43:21;16.70;68.40
23813;DHT22;12087;45.190;5.688;2023-04-25T17:49:03;16.60;68.30
23813;DHT22;12087;45.190;5.688;2023-04-25T17:54:57;16.60;70.10
23813;DHT22;12087;45.190;5.688;2023-04-25T18:00:45;16.50;69.40
23813;DHT22;12087;45.190;5.688;2023-04-25T18:06:31;16.40;69.60
23813;DHT22;12087;45.190;5.688;2023-04-25T18:11:54;16.30;70.20
23813;DHT22;12087;45.190;5.688;2023-04-25T18:17:16;16.20;70.10
23813;DHT22;12087;45.190;5.688;2023-04-25T18:22:40;16.10;70.30
23813;DHT22;12087;45.190;5.688;2023-04-25T18:28:03;16.10;70.70
23813;DHT22;12087;45.190;5.688;2023-04-25T18:33:25;16.00;71.10
23813;DHT22;12087;45.190;5.688;2023-04-25T18:38:48;15.90;70.90
23813;DHT22;12087;45.190;5.688;2023-04-25T18:44:14;15.80;71.40
23813;DHT22;12087;45.190;5.688;2023-04-25T18:49:37;15.80;71.50
23813;DHT22;12087;45.190;5.688;2023-04-25T18:55:00;15.70;71.90
23813;DHT22;12087;45.190;5.688;2023-04-25T19:00:30;15.60;71.70
23813;DHT22;12087;45.190;5.688;2023-04-25T19:05:53;15.50;72.70
23813;DHT22;12087;45.190;5.688;2023-04-25T19:11:17;15.40;72.90
23813;DHT22;12087;45.190;5.688;2023-04-25T19:16:40;15.30;74.50
23813;DHT22;12087;45.190;5.688;2023-04-25T19:22:03;15.30;74.60
23813;DHT22;12087;45.190;5.688;2023-04-25T19:27:26;15.20;75.60
23813;DHT22;12087;45.190;5.688;2023-04-25T19:32:49;15.10;74.70
23813;DHT22;12087;45.190;5.688;2023-04-25T19:38:11;15.00;76.80
23813;DHT22;12087;45.190;5.688;2023-04-25T19:43:42;14.90;77.80
23813;DHT22;12087;45.190;5.688;2023-04-25T19:49:17;14.90;78.20
23813;DHT22;12087;45.190;5.688;2023-04-25T19:55:13;14.80;77.60
23813;DHT22;12087;45.190;5.688;2023-04-25T20:07:15;14.60;78.90
23813;DHT22;12087;45.190;5.688;2023-04-25T20:12:44;14.60;78.50
23813;DHT22;12087;45.190;5.688;2023-04-25T20:18:21;14.50;77.60
23813;DHT22;12087;45.190;5.688;2023-04-25T20:23:45;14.50;77.40
23813;DHT22;12087;45.190;5.688;2023-04-25T20:29:07;14.40;77.90
23813;DHT22;12087;45.190;5.688;2023-04-25T20:34:30;14.40;78.70
23813;DHT22;12087;45.190;5.688;2023-04-25T20:39:55;14.30;78.40
23813;DHT22;12087;45.190;5.688;2023-04-25T20:45:18;14.20;79.00
23813;DHT22;12087;45.190;5.688;2023-04-25T20:50:40;14.20;80.00
23813;DHT22;12087;45.190;5.688;2023-04-25T20:56:04;14.10;80.50
23813;DHT22;12087;45.190;5.688;2023-04-25T21:01:27;14.00;80.50
23813;DHT22;12087;45.190;5.688;2023-04-25T21:06:50;13.90;80.80
23813;DHT22;12087;45.190;5.688;2023-04-25T21:12:15;13.90;81.00
23813;DHT22;12087;45.190;5.688;2023-04-25T21:17:54;13.80;81.30
23813;DHT22;12087;45.190;5.688;2023-04-25T21:23:37;13.70;81.40
23813;DHT22;12087;45.190;5.688;2023-04-25T21:29:22;13.70;81.50
23813;DHT22;12087;45.190;5.688;2023-04-25T21:41:33;13.50;82.90
23813;DHT22;12087;45.190;5.688;2023-04-25T21:47:49;13.40;84.00
23813;DHT22;12087;45.190;5.688;2023-04-25T21:53:41;13.30;84.60
23813;DHT22;12087;45.190;5.688;2023-04-25T21:59:48;13.30;84.80
23813;DHT22;12087;45.190;5.688;2023-04-25T22:05:43;13.10;85.70
23813;DHT22;12087;45.190;5.688;2023-04-25T22:17:58;13.10;85.90
23813;DHT22;12087;45.190;5.688;2023-04-25T22:30:18;12.90;87.60
23813;DHT22;12087;45.190;5.688;2023-04-25T22:35:46;12.80;88.20
23813;DHT22;12087;45.190;5.688;2023-04-25T22:42:08;12.70;88.70
23813;DHT22;12087;45.190;5.688;2023-04-25T22:47:45;12.70;89.30
23813;DHT22;12087;45.190;5.688;2023-04-25T22:53:23;12.60;89.90
23813;DHT22;12087;45.190;5.688;2023-04-25T22:58:59;12.60;89.80
23813;DHT22;12087;45.190;5.688;2023-04-25T23:04:22;12.50;90.60
23813;DHT22;12087;45.190;5.688;2023-04-25T23:09:45;12.50;91.10
23813;DHT22;12087;45.190;5.688;2023-04-25T23:15:08;12.50;91.80
23813;DHT22;12087;45.190;5.688;2023-04-25T23:20:31;12.30;92.30
23813;DHT22;12087;45.190;5.688;2023-04-25T23:25:54;12.20;92.40
23813;DHT22;12087;45.190;5.688;2023-04-25T23:31:17;12.10;92.90
23813;DHT22;12087;45.190;5.688;2023-04-25T23:36:41;12.10;93.40
23813;DHT22;12087;45.190;5.688;2023-04-25T23:42:03;11.90;95.00
23813;DHT22;12087;45.190;5.688;2023-04-25T23:47:25;11.80;95.80
23813;DHT22;12087;45.190;5.688;2023-04-25T23:52:49;11.60;97.00
23813;DHT22;12087;45.190;5.688;2023-04-25T23:58:11;11.50;98.30
